Time;durP1;ratioP1;P1;durP2;ratioP2;P2;SDS_P1;SDS_P2;PMS_P1;PMS_P2;Temp;Humidity;BMP_temperature;BMP_pressure;BME280_temperature;BME280_humidity;BME280_pressure;Samples;Min_cycle;Max_cycle;Signal;HPM_P1;HPM_P2
2022/02/23 00:01:07;;;;;;;1.50;0.80;;;;;;;6.81;100.00;153109.78;5044670;28;20447;-79
2022/02/23 00:03:43;;;;;;;1.73;1.10;;;;;;;6.79;100.00;153103.31;5027484;28;20463;-79
2022/02/23 00:06:19;;;;;;;2.53;1.00;;;;;;;6.87;100.00;153123.97;5042635;28;20451;-79
2022/02/23 00:08:54;;;;;;;1.10;0.70;;;;;;;6.87;100.00;153125.28;5016391;28;20440;-79
2022/02/23 00:11:30;;;;;;;1.67;0.80;;;;;;;6.87;100.00;153125.28;5025530;28;20452;-79
2022/02/23 00:14:07;;;;;;;1.53;1.00;;;;;;;6.90;100.00;153131.72;5027067;28;20440;-79
2022/02/23 00:16:42;;;;;;;1.90;0.73;;;;;;;6.88;100.00;153127.88;5044739;28;20534;-79
2022/02/23 00:19:18;;;;;;;1.57;0.70;;;;;;;6.90;100.00;153131.72;5028526;28;20791;-79
2022/02/23 00:21:53;;;;;;;1.90;0.90;;;;;;;6.84;100.00;153117.53;5013669;28;20456;-79
2022/02/23 00:24:29;;;;;;;1.00;0.67;;;;;;;6.85;100.00;153118.81;5027814;28;20810;-79
2022/02/23 00:27:05;;;;;;;1.50;1.00;;;;;;;6.87;100.00;153125.28;5029355;28;20443;-79
2022/02/23 00:29:42;;;;;;;1.00;0.67;;;;;;;6.84;100.00;153117.53;5027747;28;20459;-79
2022/02/23 00:32:17;;;;;;;1.53;1.00;;;;;;;6.84;100.00;153116.22;5011828;28;20479;-79
2022/02/23 00:34:53;;;;;;;1.23;0.70;;;;;;;6.85;100.00;153120.13;5027101;28;20437;-79
2022/02/23 00:37:28;;;;;;;1.87;1.17;;;;;;;6.89;100.00;153130.44;5009947;28;20810;-79
2022/02/23 00:40:04;;;;;;;0.90;0.67;;;;;;;6.87;100.00;153125.28;5028130;28;20431;-79
2022/02/23 00:42:40;;;;;;;1.77;1.10;;;;;;;6.87;100.00;153125.28;5026154;28;20527;-79
2022/02/23 00:45:17;;;;;;;1.20;0.80;;;;;;;6.86;100.00;153122.69;5010862;28;20487;-79
2022/02/23 00:47:53;;;;;;;1.30;0.90;;;;;;;6.86;100.00;153122.69;5023693;28;20531;-79
2022/02/23 00:50:28;;;;;;;1.03;0.57;;;;;;;6.89;100.00;153130.44;5005039;28;20582;-79
2022/02/23 00:53:04;;;;;;;1.13;0.70;;;;;;;6.91;100.00;153134.34;5014796;28;20472;-79
2022/02/23 00:55:40;;;;;;;1.40;1.10;;;;;;;6.91;100.00;153135.59;5000897;28;20457;-79
2022/02/23 00:58:15;;;;;;;2.00;0.97;;;;;;;6.91;100.00;153135.59;5010698;28;21170;-79
2022/02/23 01:00:52;;;;;;;2.00;1.23;;;;;;;6.88;100.00;153127.88;5014968;28;20444;-79
2022/02/23 01:03:28;;;;;;;1.33;1.13;;;;;;;6.88;100.00;153126.59;5010627;28;20866;-79
2022/02/23 01:06:04;;;;;;;1.80;0.77;;;;;;;6.84;100.00;153117.53;5031121;28;20441;-79
2022/02/23 01:08:39;;;;;;;1.80;1.00;;;;;;;6.88;100.00;153127.88;5030027;28;20454;-79
2022/02/23 01:11:16;;;;;;;1.13;0.80;;;;;;;6.87;100.00;153125.28;5016243;28;20536;-79
2022/02/23 01:13:52;;;;;;;1.47;0.80;;;;;;;6.87;100.00;153125.28;5007515;28;20541;-79
2022/02/23 01:16:29;;;;;;;2.23;1.07;;;;;;;6.88;100.00;153127.88;5013749;28;21022;-79
2022/02/23 01:19:05;;;;;;;2.73;1.00;;;;;;;6.91;100.00;153135.59;5013367;28;20761;-79
2022/02/23 01:21:41;;;;;;;1.10;1.00;;;;;;;6.90;100.00;153131.72;4998942;28;20959;-79
2022/02/23 01:24:16;;;;;;;2.40;1.00;;;;;;;6.89;100.00;153130.44;5011937;28;20444;-79
2022/02/23 01:26:52;;;;;;;5.00;1.10;;;;;;;6.90;100.00;153133.03;5010571;28;20480;-79
2022/02/23 01:29:28;;;;;;;1.70;0.90;;;;;;;6.91;100.00;153135.59;5017365;28;20959;-79
2022/02/23 01:32:06;;;;;;;3.00;1.10;;;;;;;6.90;100.00;153133.03;4998635;28;20440;-79
2022/02/23 01:34:41;;;;;;;3.70;0.90;;;;;;;6.91;100.00;153135.59;5013069;28;20452;-79
2022/02/23 01:37:17;;;;;;;1.10;0.80;;;;;;;6.99;100.00;153156.25;5002898;28;21071;-79
2022/02/23 01:39:53;;;;;;;1.60;0.70;;;;;;;6.95;100.00;153145.94;5016037;28;20440;-79
2022/02/23 01:42:29;;;;;;;1.73;1.07;;;;;;;6.96;100.00;153148.53;5031541;28;20538;-79
2022/02/23 01:45:05;;;;;;;1.10;0.80;;;;;;;6.93;100.00;153139.47;5013709;28;20809;-79
2022/02/23 01:47:42;;;;;;;1.73;0.70;;;;;;;6.97;100.00;153151.09;5011444;28;20443;-79
2022/02/23 01:50:18;;;;;;;2.87;1.00;;;;;;;6.93;100.00;153140.78;5038848;28;20557;-79
2022/02/23 01:52:54;;;;;;;1.17;0.60;;;;;;;6.99;100.00;153155.00;5013616;28;20967;-79
2022/02/23 01:55:30;;;;;;;1.67;0.90;;;;;;;6.96;100.00;153147.25;5013239;28;20794;-79
2022/02/23 01:58:05;;;;;;;1.93;0.70;;;;;;;6.78;100.00;153102.03;5019585;28;20455;-79
2022/02/23 02:00:41;;;;;;;3.10;0.70;;;;;;;6.46;100.00;153020.72;4998943;28;20499;-79
2022/02/23 02:03:18;;;;;;;2.30;1.03;;;;;;;6.23;100.00;152960.06;5007077;28;20459;-80
2022/02/23 02:05:54;;;;;;;2.10;1.10;;;;;;;5.69;100.00;152823.34;4998115;28;20852;-80
2022/02/23 02:08:29;;;;;;;2.47;0.87;;;;;;;5.54;100.00;152785.91;5009983;28;20452;-80
2022/02/23 02:11:05;;;;;;;5.17;1.10;;;;;;;5.34;100.00;152733.06;5011976;28;20452;-80
2022/02/23 02:13:40;;;;;;;2.40;0.87;;;;;;;5.17;100.00;152689.22;5011581;28;20456;-79
2022/02/23 02:16:16;;;;;;;1.70;1.00;;;;;;;5.19;100.00;152694.41;5010531;28;20444;-79
2022/02/23 02:18:53;;;;;;;1.87;0.93;;;;;;;5.16;100.00;152686.66;5009395;28;20448;-79
2022/02/23 02:21:30;;;;;;;1.17;0.80;;;;;;;5.10;100.00;152672.47;5010397;28;20487;-79
2022/02/23 02:24:06;;;;;;;3.10;1.20;;;;;;;5.14;100.00;152681.47;5009492;28;20850;-79
2022/02/23 02:26:42;;;;;;;2.63;0.90;;;;;;;5.03;100.00;152653.16;5009110;28;20444;-79
2022/02/23 02:29:18;;;;;;;2.60;0.87;;;;;;;5.03;100.00;152654.41;5011242;28;20437;-79
2022/02/23 02:31:54;;;;;;;1.20;0.70;;;;;;;5.01;100.00;152649.25;5010088;28;20444;-79
2022/02/23 02:34:30;;;;;;;4.80;0.73;;;;;;;5.09;100.00;152668.59;5012458;28;20547;-79
2022/02/23 02:37:07;;;;;;;4.50;1.00;;;;;;;5.06;100.00;152660.84;5009929;28;21018;-78
2022/02/23 02:39:43;;;;;;;4.20;0.83;;;;;;;5.14;100.00;152681.47;4994825;28;20448;-79
2022/02/23 02:42:19;;;;;;;3.20;0.80;;;;;;;5.20;100.00;152696.94;4996455;28;20448;-79
2022/02/23 02:44:55;;;;;;;3.53;1.10;;;;;;;5.18;100.00;152691.81;5010757;28;20440;-79
2022/02/23 02:47:30;;;;;;;1.20;0.80;;;;;;;5.20;100.00;152696.94;5004576;28;20480;-79
2022/02/23 02:50:06;;;;;;;2.50;1.13;;;;;;;5.29;100.00;152720.19;5025794;28;20554;-79
2022/02/23 02:52:43;;;;;;;4.87;1.10;;;;;;;5.37;100.00;152740.81;5028780;28;20463;-79
2022/02/23 02:55:20;;;;;;;7.07;1.73;;;;;;;5.34;100.00;152734.38;5014802;28;20448;-79
2022/02/23 02:57:55;;;;;;;2.50;0.70;;;;;;;5.30;100.00;152724.03;5026046;28;20474;-79
2022/02/23 03:00:31;;;;;;;4.40;1.73;;;;;;;5.38;100.00;152743.34;5029605;28;20487;-79
2022/02/23 03:03:06;;;;;;;2.50;1.27;;;;;;;5.39;100.00;152747.25;5013455;28;20444;-79
2022/02/23 03:05:42;;;;;;;3.23;1.10;;;;;;;5.42;100.00;152753.69;5029334;28;20447;-79
2022/02/23 03:08:19;;;;;;;4.27;1.30;;;;;;;5.40;100.00;152748.56;5043466;28;20451;-79
2022/02/23 03:10:54;;;;;;;2.57;1.30;;;;;;;5.48;100.00;152769.19;5030505;28;20536;-79
2022/02/23 03:13:29;;;;;;;1.73;0.97;;;;;;;5.45;100.00;152762.69;5030330;28;20464;-79
2022/02/23 03:16:06;;;;;;;2.67;1.37;;;;;;;5.49;100.00;152771.72;5026852;28;20464;-79
2022/02/23 03:18:41;;;;;;;4.73;1.43;;;;;;;5.51;100.00;152778.19;5030036;28;20447;-79
2022/02/23 03:21:17;;;;;;;2.93;1.27;;;;;;;5.50;100.00;152774.31;5022479;28;20476;-79
2022/02/23 03:23:54;;;;;;;3.90;1.33;;;;;;;5.53;100.00;152782.06;5022273;28;20452;-79
2022/02/23 03:26:29;;;;;;;1.80;1.20;;;;;;;5.55;100.00;152787.22;5028599;28;20452;-79
2022/02/23 03:29:04;;;;;;;4.53;1.90;;;;;;;5.59;100.00;152797.50;5029414;28;20450;-79
2022/02/23 03:31:40;;;;;;;4.90;2.00;;;;;;;5.55;100.00;152787.22;5029855;28;20447;-79
2022/02/23 03:34:16;;;;;;;4.83;1.47;;;;;;;5.56;100.00;152789.75;5013036;28;20472;-80
2022/02/23 03:36:51;;;;;;;5.57;2.17;;;;;;;5.54;100.00;152784.63;5029340;28;20966;-79
2022/02/23 03:39:28;;;;;;;3.40;2.27;;;;;;;5.52;100.00;152779.47;5011698;28;20935;-79
2022/02/23 03:42:04;;;;;;;9.20;2.40;;;;;;;5.46;100.00;152764.00;5014813;28;20950;-79
2022/02/23 03:44:40;;;;;;;5.07;2.30;;;;;;;5.40;100.00;152749.81;5027967;28;20486;-79
2022/02/23 03:47:15;;;;;;;2.63;1.93;;;;;;;5.41;100.00;152752.41;5029297;28;20502;-80
2022/02/23 03:49:51;;;;;;;5.77;2.80;;;;;;;5.35;100.00;152736.91;5013939;28;20483;-79
2022/02/23 03:52:27;;;;;;;3.70;2.03;;;;;;;5.34;100.00;152734.38;5028106;28;21100;-79
2022/02/23 03:55:05;;;;;;;3.13;2.03;;;;;;;5.29;100.00;152721.47;5030952;28;20468;-79
2022/02/23 03:57:40;;;;;;;2.37;1.87;;;;;;;5.27;100.00;152716.28;5024584;28;20445;-80
2022/02/23 04:00:17;;;;;;;6.03;2.40;;;;;;;5.23;100.00;152706.00;5046776;28;20795;-79
2022/02/23 04:02:52;;;;;;;3.67;2.20;;;;;;;5.19;100.00;152694.41;5029345;28;20439;-79
2022/02/23 04:05:28;;;;;;;2.47;1.80;;;;;;;5.18;100.00;152691.81;5023581;28;20495;-80
2022/02/23 04:08:04;;;;;;;3.73;1.67;;;;;;;5.15;100.00;152685.38;5013462;28;20730;-80
2022/02/23 04:10:41;;;;;;;2.53;1.97;;;;;;;5.10;100.00;152672.47;5006251;28;20459;-80
2022/02/23 04:13:17;;;;;;;5.00;1.63;;;;;;;5.11;100.00;152673.78;5045264;28;20463;-79
2022/02/23 04:15:52;;;;;;;3.47;1.67;;;;;;;5.13;100.00;152678.94;5029177;28;20459;-80
2022/02/23 04:18:28;;;;;;;4.93;2.10;;;;;;;5.11;100.00;152673.78;5013981;28;21022;-80
2022/02/23 04:21:04;;;;;;;6.33;1.80;;;;;;;5.12;100.00;152676.31;5027995;28;20451;-79
2022/02/23 04:23:40;;;;;;;4.33;1.77;;;;;;;5.14;100.00;152681.47;5012500;28;20866;-79
2022/02/23 04:26:17;;;;;;;5.93;1.70;;;;;;;5.14;100.00;152682.78;5027400;28;20451;-79
2022/02/23 04:28:53;;;;;;;3.43;1.60;;;;;;;5.14;100.00;152682.78;5011969;28;20440;-79
2022/02/23 04:31:29;;;;;;;2.50;1.43;;;;;;;5.15;100.00;152684.06;5029123;28;20467;-80
2022/02/23 04:34:05;;;;;;;5.10;1.53;;;;;;;5.20;100.00;152698.25;5029880;28;20558;-79
2022/02/23 04:36:41;;;;;;;3.23;1.57;;;;;;;5.18;100.00;152693.09;5026552;28;20525;-79
2022/02/23 04:39:16;;;;;;;3.60;1.70;;;;;;;5.21;100.00;152699.56;5026364;28;20443;-80
2022/02/23 04:41:53;;;;;;;4.00;1.33;;;;;;;5.20;100.00;152698.25;5041447;28;20450;-80
2022/02/23 04:44:29;;;;;;;3.10;1.80;;;;;;;5.18;100.00;152691.81;5045966;28;20514;-80
2022/02/23 04:47:05;;;;;;;3.33;2.07;;;;;;;5.21;100.00;152699.56;5007499;28;20444;-79
2022/02/23 04:49:41;;;;;;;3.43;1.57;;;;;;;5.21;100.00;152699.56;5025772;28;20479;-80
2022/02/23 04:52:17;;;;;;;4.47;2.10;;;;;;;5.22;100.00;152702.09;5041815;28;20482;-79
2022/02/23 04:55:01;;;;;;;2.87;1.43;;;;;;;5.17;100.00;152689.22;5027390;28;20472;-80
2022/02/23 04:57:47;;;;;;;4.43;1.53;;;;;;;5.15;100.00;152684.06;5043269;28;20510;-80
2022/02/23 05:03:26;;;;;;;4.30;1.37;;;;;;;5.09;100.00;152668.59;5044350;28;20515;-80
2022/02/23 05:06:04;;;;;;;3.53;1.77;;;;;;;5.03;100.00;152653.16;5028676;28;20483;-80
2022/02/23 05:08:41;;;;;;;3.50;2.00;;;;;;;5.01;100.00;152647.97;5024386;28;20554;-80
2022/02/23 05:11:16;;;;;;;8.83;1.77;;;;;;;4.97;100.00;152637.69;5041669;28;20509;-80
2022/02/23 05:13:53;;;;;;;3.00;1.57;;;;;;;4.95;100.00;152633.78;5028252;28;20869;-80
2022/02/23 05:16:29;;;;;;;2.53;1.70;;;;;;;4.89;100.00;152619.66;5028770;28;20665;-80
2022/02/23 05:19:04;;;;;;;3.00;1.80;;;;;;;4.89;100.00;152619.66;5044456;28;20464;-80
2022/02/23 05:21:40;;;;;;;8.23;2.40;;;;;;;4.91;100.00;152624.78;5013182;28;20805;-80
2022/02/23 05:24:16;;;;;;;5.90;2.60;;;;;;;4.88;100.00;152615.75;5027119;28;20443;-79
2022/02/23 05:26:52;;;;;;;2.87;1.43;;;;;;;4.80;100.00;152596.44;5023717;28;20546;-79
2022/02/23 05:29:31;;;;;;;2.97;1.70;;;;;;;4.70;100.00;152570.66;5029074;28;20474;-80
2022/02/23 05:32:08;;;;;;;2.83;1.77;;;;;;;4.61;100.00;152547.47;5044050;28;20562;-80
2022/02/23 05:34:43;;;;;;;4.60;1.50;;;;;;;4.54;100.00;152529.44;5028426;28;20533;-80
2022/02/23 05:37:19;;;;;;;2.43;1.70;;;;;;;4.49;100.00;152516.56;5024948;28;20439;-80
2022/02/23 05:39:54;;;;;;;3.70;1.60;;;;;;;4.49;100.00;152515.25;5022504;28;20455;-80
2022/02/23 05:42:30;;;;;;;3.77;2.10;;;;;;;4.41;100.00;152495.94;5023917;28;20480;-80
2022/02/23 05:45:08;;;;;;;5.67;2.07;;;;;;;4.35;100.00;152479.19;5014234;28;20448;-80
2022/02/23 05:47:44;;;;;;;3.27;1.63;;;;;;;4.32;100.00;152472.75;5029209;28;20486;-79
2022/02/23 05:50:19;;;;;;;3.30;2.20;;;;;;;4.29;100.00;152465.00;5041949;28;20554;-79
2022/02/23 05:52:56;;;;;;;3.80;1.93;;;;;;;4.27;100.00;152461.16;5028996;28;20452;-79
2022/02/23 05:55:32;;;;;;;3.43;1.97;;;;;;;4.24;100.00;152452.13;5011380;28;20567;-79
2022/02/23 05:58:08;;;;;;;4.43;2.30;;;;;;;4.16;100.00;152432.81;5027668;28;20452;-79
2022/02/23 06:00:45;;;;;;;4.53;2.37;;;;;;;4.15;100.00;152428.97;5008314;28;20452;-79
2022/02/23 06:03:20;;;;;;;5.00;2.30;;;;;;;4.11;100.00;152418.66;5007242;28;20468;-79
2022/02/23 06:05:56;;;;;;;5.13;2.50;;;;;;;4.10;100.00;152416.09;5009647;28;20475;-79
2022/02/23 06:08:31;;;;;;;4.10;2.43;;;;;;;4.07;100.00;152408.38;5026169;28;20440;-79
2022/02/23 06:11:08;;;;;;;2.70;2.27;;;;;;;4.08;100.00;152412.22;4992719;28;20567;-84
2022/02/23 06:13:43;;;;;;;4.00;2.50;;;;;;;4.02;100.00;152395.50;5006909;28;20445;-79
2022/02/23 06:16:22;;;;;;;9.23;2.93;;;;;;;4.04;100.00;152400.63;5009108;28;20456;-79
2022/02/23 06:18:58;;;;;;;4.63;2.40;;;;;;;3.98;100.00;152386.47;5024881;28;20780;-79
2022/02/23 06:21:33;;;;;;;3.93;2.60;;;;;;;3.97;100.00;152382.63;5012054;28;20522;-79
2022/02/23 06:24:09;;;;;;;5.40;3.03;;;;;;;3.98;100.00;152385.16;5012980;28;20468;-79
2022/02/23 06:26:44;;;;;;;4.43;3.23;;;;;;;3.99;100.00;152387.75;5025407;28;20885;-79
2022/02/23 06:29:20;;;;;;;4.40;2.33;;;;;;;3.99;100.00;152387.75;4996698;28;20939;-79
2022/02/23 06:32:04;;;;;;;7.57;3.53;;;;;;;3.97;100.00;152383.88;5014159;28;20480;-79
2022/02/23 06:34:40;;;;;;;6.60;4.20;;;;;;;4.04;100.00;152400.63;4986452;28;20571;-78
2022/02/23 06:37:15;;;;;;;7.40;3.27;;;;;;;4.11;100.00;152418.66;5008726;28;20448;-79
2022/02/23 06:39:52;;;;;;;4.10;2.57;;;;;;;4.16;100.00;152432.81;5006543;28;20993;-79
2022/02/23 06:42:28;;;;;;;4.83;2.50;;;;;;;4.24;100.00;152453.44;5009613;28;20484;-79
2022/02/23 06:45:04;;;;;;;6.63;2.80;;;;;;;4.28;100.00;152462.47;4993061;28;20488;-80
2022/02/23 06:47:41;;;;;;;7.57;2.63;;;;;;;4.35;100.00;152480.47;5003514;28;20474;-80
2022/02/23 06:50:20;;;;;;;4.17;2.60;;;;;;;4.45;100.00;152504.97;5015702;28;20487;-79
2022/02/23 06:53:08;;;;;;;5.37;3.00;;;;;;;4.48;100.00;152513.97;5040642;28;20543;-80
2022/02/23 06:55:44;;;;;;;3.17;2.33;;;;;;;4.52;100.00;152523.00;5025019;28;20546;-80
2022/02/23 06:58:20;;;;;;;3.90;2.30;;;;;;;4.51;100.00;152521.69;5029400;28;20998;-80
2022/02/23 07:00:56;;;;;;;4.90;2.70;;;;;;;4.49;100.00;152516.56;5028146;28;20483;-80
2022/02/23 07:03:33;;;;;;;6.00;3.10;;;;;;;4.51;100.00;152521.69;5045515;28;21278;-79
2022/02/23 07:06:09;;;;;;;6.30;3.60;;;;;;;4.61;100.00;152547.47;5027258;28;20550;-80
2022/02/23 07:08:46;;;;;;;4.27;3.60;;;;;;;4.77;100.00;152587.41;5013002;28;20487;-80
2022/02/23 07:11:25;;;;;;;7.00;3.53;;;;;;;4.94;100.00;152631.22;5043217;28;20452;-80
2022/02/23 07:14:03;;;;;;;3.73;3.10;;;;;;;5.14;100.00;152681.47;5012066;28;20459;-80
2022/02/23 07:16:38;;;;;;;3.40;2.40;;;;;;;5.31;100.00;152725.31;5013425;28;20460;-80
2022/02/23 07:19:16;;;;;;;6.17;3.07;;;;;;;5.49;100.00;152771.72;5026381;28;20524;-80
2022/02/23 07:21:52;;;;;;;4.83;2.80;;;;;;;5.68;100.00;152819.44;5026665;28;20891;-80
2022/02/23 07:24:30;;;;;;;4.50;3.10;;;;;;;5.87;100.00;152869.81;5027297;28;20471;-80
2022/02/23 07:27:11;;;;;;;4.47;2.73;;;;;;;6.09;100.00;152926.53;5026723;28;20451;-80
2022/02/23 07:29:46;;;;;;;6.67;2.47;;;;;;;6.29;100.00;152975.56;5046353;28;20547;-80
2022/02/23 07:32:26;;;;;;;4.60;2.83;;;;;;;6.42;100.00;153010.41;5023337;28;20445;-80
2022/02/23 07:35:05;;;;;;;4.67;2.73;;;;;;;6.60;100.00;153055.56;5041919;28;20471;-80
2022/02/23 07:37:41;;;;;;;5.43;2.87;;;;;;;6.72;100.00;153086.56;5025584;28;21028;-80
2022/02/23 07:40:20;;;;;;;3.67;2.50;;;;;;;6.93;99.06;153139.47;5046304;28;20456;-80
2022/02/23 07:42:56;;;;;;;4.50;2.73;;;;;;;7.15;98.22;153197.56;5028297;28;20451;-80
2022/02/23 07:45:32;;;;;;;3.97;2.60;;;;;;;7.44;97.58;153269.91;5021028;28;20451;-80
2022/02/23 07:48:08;;;;;;;4.10;2.90;;;;;;;7.70;96.45;153337.06;5008176;28;20448;-80
2022/02/23 07:50:45;;;;;;;5.23;2.90;;;;;;;8.00;94.46;153414.53;5037784;28;20476;-80
2022/02/23 07:53:21;;;;;;;3.63;2.40;;;;;;;8.23;92.87;153474.03;5024098;28;20771;-80
2022/02/23 07:55:56;;;;;;;4.57;2.60;;;;;;;8.41;90.85;153519.28;4993033;28;20974;-80
2022/02/23 07:58:32;;;;;;;4.40;2.73;;;;;;;8.55;90.15;153555.50;5024615;28;20936;-80
2022/02/23 08:01:08;;;;;;;7.30;2.20;;;;;;;8.76;89.99;153609.81;5010564;28;20555;-80
2022/02/23 08:03:46;;;;;;;3.30;2.53;;;;;;;8.98;89.39;153665.34;5002598;28;20820;-80
2022/02/23 08:06:23;;;;;;;3.63;2.37;;;;;;;8.87;88.15;153636.94;5006998;28;20781;-80
2022/02/23 08:08:59;;;;;;;3.07;2.47;;;;;;;9.12;87.95;153701.59;5004650;28;20436;-80
2022/02/23 08:11:36;;;;;;;2.90;2.40;;;;;;;9.12;87.41;153701.59;5004518;28;20492;-80
2022/02/23 08:14:12;;;;;;;4.37;2.53;;;;;;;9.19;86.87;153719.69;5006873;28;20527;-80
2022/02/23 08:19:41;;;;;;;6.93;2.30;;;;;;;9.39;87.80;153770.13;5009757;28;20452;-80
2022/02/23 08:22:18;;;;;;;3.63;2.13;;;;;;;9.39;87.82;153770.13;5024313;28;20448;-80
2022/02/23 08:24:54;;;;;;;2.40;2.20;;;;;;;9.28;86.97;153742.97;5007335;28;20546;-80
2022/02/23 08:27:32;;;;;;;4.93;2.23;;;;;;;9.24;88.08;153732.59;4989171;28;20972;-80
2022/02/23 08:30:08;;;;;;;3.43;2.30;;;;;;;9.14;88.47;153706.75;5005788;28;20460;-80
2022/02/23 08:32:44;;;;;;;1.77;1.40;;;;;;;9.17;88.45;153714.50;5005542;28;20530;-79
2022/02/23 08:35:20;;;;;;;2.60;1.53;;;;;;;8.98;87.10;153665.34;4991477;28;20751;-79
2022/02/23 08:37:57;;;;;;;1.70;1.50;;;;;;;8.92;86.76;153649.88;4991208;28;20535;-80
2022/02/23 08:40:33;;;;;;;1.80;1.27;;;;;;;8.94;86.99;153656.34;5009629;28;20853;-80
2022/02/23 08:43:08;;;;;;;4.77;1.70;;;;;;;9.05;88.08;153683.50;5004361;28;20440;-80
2022/02/23 08:45:44;;;;;;;3.33;1.60;;;;;;;9.03;91.25;153678.28;5005546;28;20939;-79
2022/02/23 08:48:19;;;;;;;2.47;1.63;;;;;;;8.96;88.38;153660.19;5006139;28;20542;-79
2022/02/23 08:50:56;;;;;;;2.80;2.10;;;;;;;9.15;87.88;153709.34;5026827;28;20475;-80
2022/02/23 08:53:33;;;;;;;4.20;2.10;;;;;;;9.43;88.15;153781.75;5027214;28;21108;-79
2022/02/23 08:56:08;;;;;;;3.60;2.10;;;;;;;9.25;87.58;153733.91;5012046;28;20463;-79
2022/02/23 08:58:44;;;;;;;6.63;3.10;;;;;;;9.17;88.05;153714.50;5025909;28;20455;-79
2022/02/23 09:01:20;;;;;;;4.30;2.00;;;;;;;9.21;88.67;153723.59;5024094;28;20448;-79
2022/02/23 09:03:55;;;;;;;3.37;2.70;;;;;;;9.64;88.65;153836.09;5011433;28;20715;-79
2022/02/23 09:06:32;;;;;;;3.77;2.30;;;;;;;9.59;84.33;153823.16;5026697;28;21022;-79
2022/02/23 09:09:13;;;;;;;5.57;2.40;;;;;;;9.45;86.66;153786.94;5020360;28;20440;-79
2022/02/23 09:11:49;;;;;;;3.30;2.03;;;;;;;9.48;85.92;153793.41;5012197;28;20443;-79
2022/02/23 09:14:24;;;;;;;5.80;2.73;;;;;;;9.26;86.43;153737.81;5025131;28;20475;-79
2022/02/23 09:17:00;;;;;;;3.80;2.40;;;;;;;9.30;88.70;153748.13;5011392;28;20846;-80
2022/02/23 09:19:35;;;;;;;5.20;2.40;;;;;;;9.23;87.93;153728.75;5028169;28;20462;-79
2022/02/23 09:22:11;;;;;;;5.93;2.60;;;;;;;9.48;89.00;153794.69;5016593;28;20439;-79
2022/02/23 09:24:48;;;;;;;7.30;2.60;;;;;;;9.63;85.58;153832.25;5030499;28;20447;-80
2022/02/23 09:27:23;;;;;;;5.00;2.77;;;;;;;9.60;83.89;153824.47;5018012;28;20821;-79
2022/02/23 09:29:59;;;;;;;3.97;2.60;;;;;;;9.49;85.95;153796.00;5030071;28;20451;-79
2022/02/23 09:32:35;;;;;;;4.20;2.90;;;;;;;9.82;84.32;153881.41;5025315;28;20448;-79
2022/02/23 09:35:11;;;;;;;5.53;3.30;;;;;;;9.61;86.44;153827.06;5014100;28;20472;-79
2022/02/23 09:37:47;;;;;;;4.50;2.77;;;;;;;9.19;82.29;153719.69;5028789;28;20455;-79
2022/02/23 09:40:24;;;;;;;6.07;3.17;;;;;;;9.06;85.04;153686.06;5025042;28;20455;-79
2022/02/23 09:43:00;;;;;;;2.80;2.60;;;;;;;8.95;84.64;153657.59;5045873;28;20448;-79
2022/02/23 09:45:37;;;;;;;6.97;3.00;;;;;;;8.91;85.03;153647.28;5028421;28;20447;-79
2022/02/23 09:48:12;;;;;;;5.70;2.93;;;;;;;8.84;83.29;153629.19;5026730;28;20443;-79
2022/02/23 09:50:50;;;;;;;4.07;2.67;;;;;;;9.00;83.93;153670.56;5047068;28;20482;-79
2022/02/23 09:53:25;;;;;;;6.13;1.70;;;;;;;9.24;84.52;153732.59;5032167;28;20453;-79
2022/02/23 09:56:02;;;;;;;7.10;2.73;;;;;;;8.86;82.61;153635.66;5017898;28;20553;-78
2022/02/23 09:58:37;;;;;;;6.77;3.10;;;;;;;8.95;80.60;153658.91;5030981;28;20462;-79
2022/02/23 10:01:14;;;;;;;5.50;2.60;;;;;;;8.89;82.40;153642.13;5011243;28;20455;-79
2022/02/23 10:03:51;;;;;;;2.50;1.80;;;;;;;8.93;85.33;153652.44;5049402;28;20434;-80
2022/02/23 10:06:29;;;;;;;3.93;2.23;;;;;;;8.87;85.08;153636.94;5034341;28;20447;-80
2022/02/23 10:09:08;;;;;;;4.20;2.03;;;;;;;8.88;86.37;153639.50;5031938;28;20474;-79
2022/02/23 10:11:47;;;;;;;2.73;1.67;;;;;;;8.81;83.14;153622.72;5015066;28;20448;-80
2022/02/23 10:14:22;;;;;;;5.57;3.40;;;;;;;8.81;78.64;153621.41;5032636;28;20961;-80
2022/02/23 10:16:58;;;;;;;5.17;2.63;;;;;;;8.79;79.27;153616.25;5030918;28;20545;-80
2022/02/23 10:19:36;;;;;;;4.83;1.80;;;;;;;8.89;79.85;153642.13;5032229;28;20472;-79
2022/02/23 10:22:12;;;;;;;6.70;2.67;;;;;;;9.07;78.09;153688.66;5050613;28;20474;-80
2022/02/23 10:24:48;;;;;;;3.30;2.43;;;;;;;9.26;77.18;153736.50;5037706;28;20434;-79
2022/02/23 10:27:25;;;;;;;3.83;2.57;;;;;;;9.14;79.14;153708.03;5028954;28;20439;-80
2022/02/23 10:30:01;;;;;;;3.03;1.50;;;;;;;9.32;78.87;153752.03;5032331;28;20478;-79
2022/02/23 10:32:37;;;;;;;4.17;1.90;;;;;;;9.24;76.69;153732.59;5034785;28;20462;-80
2022/02/23 10:35:13;;;;;;;4.17;2.03;;;;;;;9.13;76.67;153705.44;5029643;28;20509;-80
2022/02/23 10:37:48;;;;;;;4.60;1.80;;;;;;;9.12;79.27;153701.59;5014017;28;21039;-80
2022/02/23 10:40:26;;;;;;;5.10;1.90;;;;;;;9.17;75.01;153715.81;5030428;28;20454;-80
2022/02/23 10:43:22;;;;;;;2.13;1.70;;;;;;;9.34;73.96;153758.50;5032638;28;20439;-79
2022/02/23 10:46:05;;;;;;;3.33;1.50;;;;;;;9.44;75.38;153784.38;5032262;28;20452;-80
2022/02/23 10:48:43;;;;;;;6.53;1.83;;;;;;;9.43;75.06;153781.75;5036499;28;20458;-80
2022/02/23 10:51:24;;;;;;;2.70;1.50;;;;;;;9.44;74.60;153784.38;4994076;28;20456;-80
2022/02/23 10:54:04;;;;;;;7.10;2.00;;;;;;;9.52;72.79;153803.78;5006883;28;20440;-80
2022/02/23 10:56:41;;;;;;;2.27;1.20;;;;;;;9.31;74.71;153749.44;4994106;28;20508;-80
2022/02/23 10:59:20;;;;;;;3.97;2.10;;;;;;;9.48;72.80;153794.69;5009461;28;20797;-80
2022/02/23 11:01:56;;;;;;;4.03;1.50;;;;;;;9.59;72.01;153823.16;4994660;28;20449;-79
2022/02/23 11:04:32;;;;;;;3.27;1.87;;;;;;;9.45;71.79;153786.94;5008904;28;20464;-80
2022/02/23 11:07:08;;;;;;;3.73;1.80;;;;;;;9.31;72.08;153750.75;5010972;28;20448;-80
2022/02/23 11:09:43;;;;;;;4.23;1.70;;;;;;;9.27;71.07;153740.38;5026297;28;20491;-79
2022/02/23 11:12:19;;;;;;;4.03;1.83;;;;;;;9.35;72.27;153761.06;4993302;28;20930;-79
2022/02/23 11:14:56;;;;;;;3.87;2.30;;;;;;;9.32;72.28;153753.31;4991635;28;20449;-78
2022/02/23 11:17:31;;;;;;;2.93;1.60;;;;;;;9.37;74.63;153766.22;5008287;28;20437;-80
2022/02/23 11:20:10;;;;;;;5.93;1.93;;;;;;;9.30;76.37;153748.13;5001166;28;20452;-79
2022/02/23 11:22:50;;;;;;;7.60;2.13;;;;;;;9.52;74.53;153805.06;5006944;28;20453;-79
2022/02/23 11:25:26;;;;;;;5.20;2.33;;;;;;;9.54;71.09;153810.25;5009001;28;20460;-79
2022/02/23 11:28:09;;;;;;;6.30;2.20;;;;;;;9.44;74.57;153784.38;5004661;28;20457;-80
2022/02/23 11:30:46;;;;;;;4.50;2.20;;;;;;;9.40;74.70;153772.75;5026839;28;20456;-79
2022/02/23 11:33:37;;;;;;;4.93;2.17;;;;;;;9.61;72.87;153828.34;5025535;28;20444;-79
2022/02/23 11:36:21;;;;;;;4.90;2.00;;;;;;;9.52;71.97;153805.06;5011484;28;20464;-79
2022/02/23 11:38:59;;;;;;;3.30;1.60;;;;;;;9.43;72.62;153781.75;5006656;28;20480;-79
2022/02/23 11:41:37;;;;;;;6.40;1.90;;;;;;;9.52;70.82;153805.06;5024696;28;20805;-77
2022/02/23 11:44:15;;;;;;;4.13;1.90;;;;;;;9.51;71.78;153802.47;5022723;28;20475;-78
2022/02/23 11:49:55;;;;;;;4.03;2.27;;;;;;;9.27;71.06;153740.38;5032813;28;20477;-78
2022/02/23 11:52:50;;;;;;;7.30;2.00;;;;;;;9.31;72.03;153750.75;5010622;28;20448;-78
2022/02/23 11:55:44;;;;;;;3.50;2.03;;;;;;;9.33;73.16;153755.91;5008035;28;20441;-78
2022/02/23 11:58:46;;;;;;;6.67;2.40;;;;;;;9.40;74.02;153772.75;5010981;28;20952;-78
2022/02/23 12:01:48;;;;;;;3.50;2.00;;;;;;;9.41;75.59;153776.59;5007332;28;20485;-78
2022/02/23 12:04:48;;;;;;;3.20;2.20;;;;;;;9.66;72.15;153841.25;5025288;28;20437;-78
2022/02/23 12:07:24;;;;;;;4.57;2.10;;;;;;;9.60;73.34;153825.78;5002081;28;21026;-78
2022/02/23 12:10:08;;;;;;;2.93;1.87;;;;;;;9.57;73.31;153816.69;4993350;28;20440;-78
2022/02/23 12:12:45;;;;;;;3.50;2.17;;;;;;;9.52;71.24;153805.06;5023925;28;20452;-78
2022/02/23 12:15:35;;;;;;;6.33;2.43;;;;;;;9.39;74.40;153771.44;5012299;28;20979;-78
2022/02/23 12:18:15;;;;;;;5.00;2.30;;;;;;;9.30;76.09;153748.13;5006571;28;20472;-79
2022/02/23 12:20:56;;;;;;;4.63;2.20;;;;;;;9.31;75.37;153750.75;5020474;28;20492;-79
2022/02/23 12:23:49;;;;;;;4.67;1.97;;;;;;;9.48;73.17;153793.41;5024372;28;20449;-79